Time;durP1;ratioP1;P1;durP2;ratioP2;P2;SDS_P1;SDS_P2;PMS_P1;PMS_P2;Temp;Humidity;BMP_temperature;BMP_pressure;BME280_temperature;BME280_humidity;BME280_pressure;Samples;Min_cycle;Max_cycle;Signal;HPM_P1;HPM_P2
2020/12/04 00:00:23;;;;;;;6.10;4.33;;;4.60;99.90;;;;;;4964135;28;20218;-87
2020/12/04 00:02:50;;;;;;;2.23;2.03;;;4.60;99.90;;;;;;4962745;28;20665;-87
2020/12/04 00:05:15;;;;;;;3.00;2.10;;;4.60;99.90;;;;;;4963345;28;20220;-86
2020/12/04 00:07:43;;;;;;;4.50;3.07;;;4.60;99.90;;;;;;4979121;28;20227;-86
2020/12/04 00:10:09;;;;;;;3.63;1.47;;;4.60;99.90;;;;;;4979100;28;20254;-88
2020/12/04 00:12:34;;;;;;;1.63;1.53;;;4.70;99.90;;;;;;4984074;28;20215;-88
2020/12/04 00:15:00;;;;;;;2.77;2.57;;;4.60;99.90;;;;;;4967456;28;20717;-87
2020/12/04 00:17:26;;;;;;;5.13;2.93;;;4.60;99.90;;;;;;4983310;28;21203;-86
2020/12/04 00:19:52;;;;;;;4.93;2.47;;;4.60;99.90;;;;;;5002518;28;20922;-88
2020/12/04 00:22:18;;;;;;;2.47;2.37;;;4.60;99.90;;;;;;4967497;28;20240;-87
2020/12/04 00:24:43;;;;;;;3.33;3.03;;;4.60;99.90;;;;;;4947992;28;20275;-88
2020/12/04 00:27:09;;;;;;;3.37;3.07;;;4.60;99.90;;;;;;4968782;28;20211;-87
2020/12/04 00:29:35;;;;;;;3.53;2.83;;;4.60;99.90;;;;;;4981482;28;21151;-88
2020/12/04 00:32:01;;;;;;;3.77;3.47;;;4.60;99.90;;;;;;4964919;28;21928;-88
2020/12/04 00:34:27;;;;;;;4.53;1.13;;;4.60;99.90;;;;;;4964266;28;20219;-88
2020/12/04 00:36:53;;;;;;;3.10;1.80;;;4.60;99.90;;;;;;4980274;28;20251;-88
2020/12/04 00:39:19;;;;;;;2.90;1.77;;;4.60;99.90;;;;;;4987661;28;20329;-88
2020/12/04 00:41:45;;;;;;;3.50;2.97;;;4.60;99.90;;;;;;5000155;28;21293;-86
2020/12/04 00:44:12;;;;;;;1.60;1.47;;;4.70;99.90;;;;;;5001214;28;20251;-89
2020/12/04 00:46:37;;;;;;;2.20;1.73;;;4.60;99.90;;;;;;4999580;28;20215;-87
2020/12/04 00:49:04;;;;;;;4.93;4.60;;;4.60;99.90;;;;;;4969734;28;20216;-87
2020/12/04 00:51:30;;;;;;;3.50;3.20;;;4.60;99.90;;;;;;4989172;28;20226;-88
2020/12/04 00:53:56;;;;;;;4.73;3.70;;;4.60;99.90;;;;;;4978415;28;20239;-87
2020/12/04 00:56:22;;;;;;;2.37;2.17;;;4.60;99.90;;;;;;4947594;28;20196;-87
2020/12/04 00:58:48;;;;;;;1.53;1.37;;;4.60;99.90;;;;;;4965435;28;20629;-85
2020/12/04 01:01:15;;;;;;;3.17;2.17;;;4.60;99.90;;;;;;4991302;28;20220;-87
2020/12/04 01:03:41;;;;;;;3.30;2.60;;;4.50;99.90;;;;;;4979526;28;20767;-86
2020/12/04 01:06:07;;;;;;;1.10;1.10;;;4.60;99.90;;;;;;4962613;28;20212;-86
2020/12/04 01:08:34;;;;;;;4.97;3.33;;;4.50;99.90;;;;;;4978934;28;20294;-85
2020/12/04 01:11:01;;;;;;;3.67;2.43;;;4.50;99.90;;;;;;4984616;28;20197;-86
2020/12/04 01:13:27;;;;;;;4.90;3.40;;;4.50;99.90;;;;;;4985235;28;20712;-86
2020/12/04 01:15:52;;;;;;;2.23;2.07;;;4.50;99.90;;;;;;4989984;28;20227;-86
2020/12/04 01:18:18;;;;;;;3.23;3.00;;;4.50;99.90;;;;;;4977421;28;21056;-90
2020/12/04 01:20:44;;;;;;;4.97;3.83;;;4.50;99.90;;;;;;4994681;28;20231;-87
2020/12/04 01:23:10;;;;;;;3.40;1.60;;;4.50;99.90;;;;;;4972415;28;20192;-87
2020/12/04 01:25:36;;;;;;;2.90;2.50;;;4.50;99.90;;;;;;4994236;28;20672;-87
2020/12/04 01:28:01;;;;;;;4.00;3.80;;;4.50;99.90;;;;;;4980288;28;20295;-86
2020/12/04 01:30:27;;;;;;;2.47;2.27;;;4.50;99.90;;;;;;4971819;28;20219;-87
2020/12/04 01:32:53;;;;;;;3.90;3.27;;;4.50;99.90;;;;;;4995944;28;20912;-87
2020/12/04 01:35:19;;;;;;;4.60;2.97;;;4.40;99.90;;;;;;4983875;28;21416;-87
2020/12/04 01:37:45;;;;;;;1.33;1.23;;;4.50;99.90;;;;;;4970191;28;20220;-86
2020/12/04 01:40:10;;;;;;;2.47;2.23;;;4.50;99.90;;;;;;5002642;28;20223;-87
2020/12/04 01:42:36;;;;;;;2.23;2.00;;;4.40;99.90;;;;;;4997901;28;21228;-87
2020/12/04 01:45:04;;;;;;;3.17;2.40;;;4.40;99.90;;;;;;4960137;28;20353;-86
2020/12/04 01:47:30;;;;;;;2.00;1.90;;;4.40;99.90;;;;;;5002609;28;20871;-86
2020/12/04 01:49:56;;;;;;;2.50;2.30;;;4.40;99.90;;;;;;4981653;28;20192;-86
2020/12/04 01:52:25;;;;;;;3.67;3.37;;;4.40;99.90;;;;;;4978158;28;20223;-88
2020/12/04 01:54:52;;;;;;;5.67;2.40;;;4.40;99.90;;;;;;4966626;28;20270;-87
2020/12/04 01:57:26;;;;;;;3.10;2.70;;;4.30;99.90;;;;;;4999045;28;20266;-87
2020/12/04 01:59:52;;;;;;;4.57;3.20;;;4.40;99.90;;;;;;4982594;28;20219;-88
2020/12/04 02:02:21;;;;;;;3.30;2.93;;;4.30;99.90;;;;;;4984325;28;20958;-88
2020/12/04 02:04:48;;;;;;;1.60;1.50;;;4.40;99.90;;;;;;4982001;28;20724;-88
2020/12/04 02:08:00;;;;;;;2.43;1.77;;;4.40;99.90;;;;;;4982276;28;20212;-87
2020/12/04 02:10:33;;;;;;;1.33;1.07;;;4.40;99.90;;;;;;4982908;28;20227;-87
2020/12/04 02:13:01;;;;;;;1.97;1.80;;;4.40;99.90;;;;;;4996946;28;20230;-88
2020/12/04 02:15:27;;;;;;;1.63;1.53;;;4.40;99.90;;;;;;5002219;28;20661;-86
2020/12/04 02:17:55;;;;;;;3.77;3.57;;;4.50;99.90;;;;;;4996481;28;20788;-88
2020/12/04 02:20:21;;;;;;;3.13;2.97;;;4.50;99.90;;;;;;4984050;28;20188;-88
2020/12/04 02:22:47;;;;;;;2.33;2.17;;;4.50;99.90;;;;;;4986989;28;20231;-88
2020/12/04 02:25:13;;;;;;;3.40;3.13;;;4.50;99.90;;;;;;4985891;28;20261;-87
2020/12/04 02:27:48;;;;;;;2.50;2.33;;;4.50;99.90;;;;;;4997924;28;20334;-87
2020/12/04 02:30:33;;;;;;;3.70;1.63;;;4.50;99.90;;;;;;4987584;28;20215;-88
2020/12/04 02:33:00;;;;;;;3.30;2.80;;;4.50;99.90;;;;;;4981623;28;20588;-86
2020/12/04 02:35:26;;;;;;;1.77;1.17;;;4.50;99.90;;;;;;4982032;28;20240;-87
2020/12/04 02:37:55;;;;;;;3.93;2.00;;;4.50;99.90;;;;;;4984120;28;20995;-86
2020/12/04 02:40:22;;;;;;;1.67;1.57;;;4.50;99.90;;;;;;4965358;28;20237;-88
2020/12/04 02:42:48;;;;;;;2.73;2.50;;;4.60;99.90;;;;;;4994977;28;20215;-89
2020/12/04 02:45:14;;;;;;;4.83;3.73;;;4.60;99.90;;;;;;4994009;28;20732;-86
2020/12/04 02:47:41;;;;;;;2.43;2.20;;;4.60;99.90;;;;;;4965952;28;20179;-87
2020/12/04 02:50:07;;;;;;;3.63;3.33;;;4.60;99.90;;;;;;4967101;28;20196;-87
2020/12/04 02:52:32;;;;;;;3.13;2.83;;;4.60;99.90;;;;;;4965395;28;21103;-86
2020/12/04 02:54:58;;;;;;;3.57;2.40;;;4.70;99.90;;;;;;4981778;28;20239;-89
2020/12/04 02:57:24;;;;;;;2.33;2.13;;;4.70;99.90;;;;;;4966215;28;20959;-88
2020/12/04 02:59:50;;;;;;;3.27;3.00;;;4.70;99.90;;;;;;4982127;28;20228;-87
2020/12/04 03:02:15;;;;;;;2.37;1.93;;;4.70;99.90;;;;;;4983849;28;21058;-87
2020/12/04 03:04:43;;;;;;;2.37;2.17;;;4.70;99.90;;;;;;4967472;28;20227;-87
2020/12/04 03:07:10;;;;;;;3.37;3.17;;;4.70;99.90;;;;;;4971108;28;20227;-86
2020/12/04 03:09:36;;;;;;;4.10;3.37;;;4.70;99.90;;;;;;4964399;28;20227;-87
2020/12/04 03:12:02;;;;;;;3.57;2.97;;;4.70;99.90;;;;;;4950605;28;20307;-86
2020/12/04 03:14:28;;;;;;;1.77;1.67;;;4.60;99.90;;;;;;4982460;28;20192;-86
2020/12/04 03:16:53;;;;;;;5.07;1.50;;;4.60;99.90;;;;;;4965744;28;20665;-86
2020/12/04 03:19:19;;;;;;;2.03;1.93;;;4.60;99.90;;;;;;4981568;28;20285;-86
2020/12/04 03:21:45;;;;;;;1.70;1.60;;;4.70;99.90;;;;;;4981096;28;20228;-86
2020/12/04 03:24:11;;;;;;;1.87;1.73;;;4.60;99.90;;;;;;4982328;28;20232;-87
2020/12/04 03:26:37;;;;;;;1.03;1.00;;;4.60;99.90;;;;;;4965310;28;20263;-87
2020/12/04 03:29:02;;;;;;;2.07;1.87;;;4.60;99.90;;;;;;4982606;28;20201;-87
2020/12/04 03:31:28;;;;;;;2.67;2.00;;;4.60;99.90;;;;;;4980730;28;20649;-86
2020/12/04 03:33:54;;;;;;;4.77;3.13;;;4.60;99.90;;;;;;4948898;28;20218;-87
2020/12/04 03:36:20;;;;;;;1.30;1.20;;;4.70;99.90;;;;;;4981926;28;21077;-87
2020/12/04 03:38:45;;;;;;;1.80;1.70;;;4.70;99.90;;;;;;4983949;28;20360;-87
2020/12/04 03:41:11;;;;;;;4.10;3.20;;;4.70;99.90;;;;;;5001890;28;20551;-87
2020/12/04 03:43:40;;;;;;;2.83;2.63;;;4.70;99.90;;;;;;4981886;28;20681;-87
2020/12/04 03:46:12;;;;;;;2.13;2.03;;;4.70;99.90;;;;;;4964450;28;20236;-86
2020/12/04 03:48:39;;;;;;;3.23;2.97;;;4.70;99.90;;;;;;4991214;28;20211;-87
2020/12/04 03:51:05;;;;;;;3.23;2.80;;;4.70;99.90;;;;;;5016801;28;20223;-87
2020/12/04 03:53:31;;;;;;;2.70;2.27;;;4.70;99.90;;;;;;4999977;28;21278;-89
2020/12/04 03:55:57;;;;;;;2.70;1.77;;;4.70;99.90;;;;;;4999861;28;20195;-86
2020/12/04 03:58:23;;;;;;;2.03;2.00;;;4.70;99.90;;;;;;4995088;28;20230;-88
2020/12/04 04:00:48;;;;;;;2.83;1.57;;;4.70;99.90;;;;;;4980679;28;20226;-87
2020/12/04 04:03:14;;;;;;;1.83;1.70;;;4.80;99.90;;;;;;4999854;28;20230;-86
2020/12/04 04:05:40;;;;;;;1.40;1.27;;;4.70;99.90;;;;;;4996296;28;20215;-90
2020/12/04 04:08:06;;;;;;;2.23;1.90;;;4.70;99.90;;;;;;4997620;28;20224;-87
2020/12/04 04:10:32;;;;;;;3.07;2.83;;;4.70;99.90;;;;;;4998934;28;20323;-87
2020/12/04 04:12:58;;;;;;;1.70;1.60;;;4.70;99.90;;;;;;4984160;28;20230;-88
2020/12/04 04:15:23;;;;;;;3.87;2.33;;;4.80;99.90;;;;;;4984248;28;20227;-87
2020/12/04 04:17:49;;;;;;;2.87;2.67;;;4.70;99.90;;;;;;4997822;28;20281;-87
2020/12/04 04:20:15;;;;;;;1.33;1.23;;;4.70;99.90;;;;;;4985780;28;20275;-87
2020/12/04 04:22:41;;;;;;;4.57;2.67;;;4.80;99.90;;;;;;4999525;28;20272;-88
2020/12/04 04:25:07;;;;;;;2.73;2.53;;;4.80;99.90;;;;;;4967919;28;21338;-87
2020/12/04 04:27:33;;;;;;;1.93;1.67;;;4.70;99.90;;;;;;4971934;28;20219;-86
2020/12/04 04:29:59;;;;;;;3.13;2.67;;;4.70;99.90;;;;;;4960584;28;20227;-88
2020/12/04 04:32:24;;;;;;;1.77;1.63;;;4.70;99.90;;;;;;4963892;28;20191;-87
2020/12/04 04:34:50;;;;;;;4.73;3.67;;;4.70;99.90;;;;;;5001023;28;20799;-86
2020/12/04 04:37:16;;;;;;;2.73;2.60;;;4.70;99.90;;;;;;4964233;28;20244;-89
2020/12/04 04:39:43;;;;;;;3.13;2.83;;;4.70;99.90;;;;;;4963638;28;20705;-86
2020/12/04 04:42:10;;;;;;;2.60;2.40;;;4.70;99.90;;;;;;4963808;28;20234;-88
2020/12/04 04:44:36;;;;;;;2.77;2.33;;;4.70;99.90;;;;;;4964062;28;20389;-87
2020/12/04 04:47:13;;;;;;;3.40;2.00;;;4.70;99.90;;;;;;4981744;28;20196;-88
2020/12/04 04:49:51;;;;;;;4.20;2.53;;;4.70;99.90;;;;;;4980229;28;20215;-88
2020/12/04 04:52:18;;;;;;;1.37;1.30;;;4.70;99.90;;;;;;4996074;28;20215;-87
2020/12/04 04:54:49;;;;;;;3.00;2.73;;;4.60;99.90;;;;;;4988613;28;20230;-88
2020/12/04 04:57:23;;;;;;;1.53;1.43;;;4.60;99.90;;;;;;4986644;28;20227;-86
2020/12/04 04:59:49;;;;;;;2.90;1.90;;;4.60;99.90;;;;;;4995449;28;20737;-88
2020/12/04 05:02:16;;;;;;;4.33;3.10;;;4.70;99.90;;;;;;4981890;28;20199;-87
2020/12/04 05:04:56;;;;;;;2.27;2.17;;;4.60;99.90;;;;;;4966950;28;20231;-88
2020/12/04 05:07:33;;;;;;;1.27;1.27;;;4.60;99.90;;;;;;4984568;28;20219;-87
2020/12/04 05:10:16;;;;;;;1.43;1.30;;;4.60;99.90;;;;;;4984905;28;20270;-88
2020/12/04 05:12:43;;;;;;;1.23;1.13;;;4.60;99.90;;;;;;4984534;28;20231;-87
2020/12/04 05:15:29;;;;;;;1.90;1.60;;;4.60;99.90;;;;;;4985282;28;20274;-87
2020/12/04 05:18:08;;;;;;;2.23;2.13;;;4.60;99.90;;;;;;4983442;28;20310;-88
2020/12/04 05:20:48;;;;;;;3.07;2.73;;;4.60;99.90;;;;;;4983032;28;20310;-85
2020/12/04 05:23:14;;;;;;;3.43;3.13;;;4.60;99.90;;;;;;4984858;28;20176;-88
2020/12/04 05:25:42;;;;;;;3.53;3.23;;;4.60;99.90;;;;;;4983397;28;20592;-86
2020/12/04 05:28:15;;;;;;;2.13;2.03;;;4.70;99.90;;;;;;4997875;28;20226;-87
2020/12/04 05:30:44;;;;;;;5.40;2.53;;;4.70;99.90;;;;;;4997667;28;20693;-85
2020/12/04 05:33:11;;;;;;;2.53;2.33;;;4.70;99.90;;;;;;4991933;28;20228;-87
2020/12/04 05:35:38;;;;;;;1.27;1.17;;;4.80;99.90;;;;;;4989349;28;20660;-86
2020/12/04 05:38:22;;;;;;;2.07;1.87;;;4.80;99.90;;;;;;4978453;28;20196;-88
2020/12/04 05:40:50;;;;;;;2.20;1.77;;;4.80;99.90;;;;;;4982353;28;20307;-87
2020/12/04 05:43:30;;;;;;;2.17;2.03;;;4.80;99.90;;;;;;4998426;28;20347;-88
2020/12/04 05:46:17;;;;;;;5.17;3.07;;;4.80;99.90;;;;;;4983203;28;20242;-88
2020/12/04 05:49:06;;;;;;;1.50;1.40;;;4.80;99.90;;;;;;4989368;28;20565;-86
2020/12/04 05:51:34;;;;;;;3.73;3.23;;;4.80;99.90;;;;;;4990311;28;20245;-88
2020/12/04 05:54:02;;;;;;;1.33;1.23;;;4.80;99.90;;;;;;4996744;28;20255;-88
2020/12/04 05:56:32;;;;;;;2.30;2.03;;;4.80;99.90;;;;;;4982811;28;20189;-88
2020/12/04 05:59:01;;;;;;;1.73;1.63;;;4.80;99.90;;;;;;4984110;28;20196;-87
2020/12/04 06:01:27;;;;;;;2.47;2.13;;;4.80;99.90;;;;;;4982388;28;20223;-87
2020/12/04 06:03:55;;;;;;;0.90;0.80;;;4.70;99.90;;;;;;4965628;28;21122;-87
2020/12/04 06:06:25;;;;;;;2.67;1.90;;;4.80;99.90;;;;;;4981405;28;20211;-87
2020/12/04 06:08:59;;;;;;;5.63;2.30;;;4.80;99.90;;;;;;4977141;28;20900;-88
2020/12/04 06:11:30;;;;;;;3.70;2.33;;;4.90;99.90;;;;;;4977936;28;20187;-88
2020/12/04 06:13:58;;;;;;;3.70;3.40;;;4.90;99.90;;;;;;4978617;28;21254;-88
2020/12/04 06:16:24;;;;;;;1.67;1.50;;;4.90;99.90;;;;;;4980033;28;20290;-87
2020/12/04 06:18:50;;;;;;;2.30;1.03;;;4.90;99.90;;;;;;4960590;28;20689;-86
2020/12/04 06:21:35;;;;;;;2.27;1.40;;;4.90;99.90;;;;;;4944973;28;20220;-86
2020/12/04 06:24:08;;;;;;;3.07;2.87;;;4.90;99.90;;;;;;4962801;28;20297;-86
2020/12/04 06:26:54;;;;;;;3.33;2.50;;;4.90;99.90;;;;;;4977976;28;20227;-87
2020/12/04 06:29:20;;;;;;;4.33;2.03;;;4.90;99.90;;;;;;4955640;28;20211;-86
2020/12/04 06:31:46;;;;;;;3.67;2.27;;;4.90;99.90;;;;;;4947838;28;20224;-85
2020/12/04 06:34:19;;;;;;;0.67;0.67;;;4.90;99.90;;;;;;4980968;28;20228;-86
2020/12/04 06:36:47;;;;;;;0.90;0.90;;;5.00;99.90;;;;;;4993756;28;20233;-86
2020/12/04 06:39:30;;;;;;;2.17;2.07;;;5.00;99.90;;;;;;4981700;28;20225;-88
2020/12/04 06:41:59;;;;;;;2.97;2.47;;;5.00;99.90;;;;;;5001374;28;20313;-87
2020/12/04 06:44:27;;;;;;;3.40;3.10;;;5.00;99.90;;;;;;4981545;28;20253;-84
2020/12/04 06:47:01;;;;;;;1.07;1.07;;;5.00;99.90;;;;;;4966501;28;20653;-87
2020/12/04 06:49:35;;;;;;;3.33;3.03;;;5.00;99.90;;;;;;4949268;28;20222;-86
2020/12/04 06:52:09;;;;;;;1.43;1.17;;;5.00;99.90;;;;;;4981694;28;20211;-86
2020/12/04 06:54:38;;;;;;;1.70;1.47;;;5.00;99.90;;;;;;4972218;28;20228;-89
2020/12/04 06:57:04;;;;;;;1.77;1.67;;;5.10;99.90;;;;;;4982952;28;20247;-86
2020/12/04 06:59:35;;;;;;;3.83;3.53;;;5.10;99.90;;;;;;4965105;28;20221;-87
2020/12/04 07:02:07;;;;;;;1.40;1.30;;;5.20;99.90;;;;;;4966649;28;20192;-86
2020/12/04 07:04:34;;;;;;;1.23;1.20;;;5.20;99.90;;;;;;4976193;28;20248;-87
2020/12/04 07:07:12;;;;;;;4.20;1.07;;;5.20;99.90;;;;;;4946922;28;20243;-88
2020/12/04 07:09:41;;;;;;;2.20;2.10;;;5.20;99.90;;;;;;4982540;28;20349;-89
2020/12/04 07:12:09;;;;;;;1.90;1.73;;;5.30;99.90;;;;;;4981545;28;20239;-86
2020/12/04 07:14:35;;;;;;;2.93;2.67;;;5.30;99.90;;;;;;4964245;28;20203;-88
2020/12/04 07:17:01;;;;;;;0.87;0.87;;;5.30;99.90;;;;;;4981290;28;20175;-87
2020/12/04 07:19:27;;;;;;;3.30;2.87;;;5.30;99.90;;;;;;4962879;28;20215;-87
2020/12/04 07:21:53;;;;;;;3.53;2.10;;;5.20;99.90;;;;;;4980949;28;20673;-87
2020/12/04 07:24:19;;;;;;;2.47;2.17;;;5.30;99.90;;;;;;4967695;28;20247;-88
2020/12/04 07:26:50;;;;;;;3.13;1.40;;;5.20;99.90;;;;;;4980538;28;20223;-88
2020/12/04 07:29:17;;;;;;;3.50;2.93;;;5.10;99.90;;;;;;4981381;28;20188;-91
2020/12/04 07:31:52;;;;;;;1.03;1.00;;;5.10;99.90;;;;;;4976119;28;20266;-88
2020/12/04 07:34:20;;;;;;;3.33;2.23;;;5.20;99.90;;;;;;4979716;28;20249;-88
2020/12/04 07:36:54;;;;;;;2.13;0.87;;;5.10;99.90;;;;;;4981856;28;20297;-88
2020/12/04 07:39:32;;;;;;;2.60;2.40;;;5.10;99.90;;;;;;4993499;28;20256;-88
2020/12/04 07:41:59;;;;;;;1.93;1.33;;;5.20;99.90;;;;;;4981186;28;20227;-92
2020/12/04 07:44:29;;;;;;;1.83;1.73;;;5.20;99.90;;;;;;4981086;28;20227;-87
2020/12/04 07:47:01;;;;;;;2.90;1.63;;;5.20;99.90;;;;;;4982520;28;20341;-86
2020/12/04 07:49:28;;;;;;;4.87;2.90;;;5.20;99.90;;;;;;4980689;28;20215;-87
2020/12/04 07:52:07;;;;;;;1.30;1.17;;;5.30;99.90;;;;;;4947762;28;20226;-85
2020/12/04 07:54:34;;;;;;;2.30;2.17;;;5.20;99.90;;;;;;4960030;28;20235;-87
2020/12/04 07:57:01;;;;;;;0.67;0.67;;;5.20;99.90;;;;;;4994692;28;20294;-86
2020/12/04 07:59:32;;;;;;;1.33;1.33;;;5.30;99.90;;;;;;4979358;28;20196;-87
2020/12/04 08:02:00;;;;;;;1.97;1.67;;;5.30;99.90;;;;;;4965596;28;20514;-88
2020/12/04 08:04:30;;;;;;;1.03;0.77;;;5.30;99.90;;;;;;4996130;28;20229;-88
2020/12/04 08:07:07;;;;;;;4.30;2.73;;;5.30;99.90;;;;;;4999635;28;20227;-89
2020/12/04 08:09:42;;;;;;;1.23;1.13;;;5.40;99.90;;;;;;5000929;28;20313;-90
2020/12/04 08:12:18;;;;;;;2.27;2.13;;;5.40;99.90;;;;;;5000809;28;20226;-89
2020/12/04 08:14:53;;;;;;;2.57;2.37;;;5.40;99.90;;;;;;5001013;28;20276;-86
2020/12/04 08:17:23;;;;;;;1.80;1.70;;;5.40;99.90;;;;;;4984061;28;20650;-89
2020/12/04 08:19:50;;;;;;;1.57;1.47;;;5.50;99.90;;;;;;5000453;28;20250;-87
2020/12/04 08:22:25;;;;;;;2.83;1.50;;;5.60;99.90;;;;;;5000471;28;20285;-88
2020/12/04 08:25:03;;;;;;;1.17;1.07;;;5.60;99.90;;;;;;4984059;28;20240;-88
2020/12/04 08:27:29;;;;;;;2.47;2.33;;;5.60;99.90;;;;;;5000633;28;20211;-88
2020/12/04 08:30:17;;;;;;;2.87;2.67;;;5.70;99.90;;;;;;4968683;28;20317;-88
2020/12/04 08:33:09;;;;;;;2.50;2.03;;;5.70;99.90;;;;;;5000894;28;20231;-89
2020/12/04 08:35:42;;;;;;;0.77;0.77;;;5.70;99.90;;;;;;5001148;28;20276;-88
2020/12/04 08:38:13;;;;;;;1.60;1.13;;;5.70;99.90;;;;;;4984659;28;20187;-87
2020/12/04 08:40:42;;;;;;;0.83;0.80;;;5.70;99.90;;;;;;4980280;28;20249;-91
2020/12/04 08:43:15;;;;;;;1.90;1.47;;;5.90;99.90;;;;;;4979800;28;20218;-89
2020/12/04 08:45:46;;;;;;;1.17;1.07;;;6.00;99.90;;;;;;4982510;28;20227;-88
2020/12/04 08:48:18;;;;;;;1.07;1.07;;;5.90;99.90;;;;;;5001807;28;20583;-88
2020/12/04 08:50:54;;;;;;;1.60;1.50;;;5.90;99.90;;;;;;4999853;28;20223;-88
2020/12/04 08:53:21;;;;;;;2.10;2.00;;;5.90;99.90;;;;;;4985885;28;20197;-89
2020/12/04 08:55:55;;;;;;;0.57;0.57;;;5.90;99.90;;;;;;4999685;28;20269;-88
2020/12/04 08:58:22;;;;;;;1.93;1.77;;;5.90;99.90;;;;;;4999561;28;20219;-88
2020/12/04 09:00:50;;;;;;;1.53;1.43;;;5.90;99.90;;;;;;4982946;28;20357;-87
2020/12/04 09:03:17;;;;;;;1.10;0.50;;;5.90;99.90;;;;;;4983113;28;20243;-87
2020/12/04 09:05:43;;;;;;;1.10;1.00;;;6.00;99.90;;;;;;4965857;28;20231;-88
2020/12/04 09:08:09;;;;;;;1.33;1.23;;;6.10;99.90;;;;;;4983861;28;20266;-95
2020/12/04 09:10:39;;;;;;;2.47;1.70;;;6.20;99.90;;;;;;4946358;28;20216;-96
2020/12/04 09:13:13;;;;;;;3.17;1.80;;;6.10;99.90;;;;;;4973353;28;20218;-95
2020/12/04 09:15:44;;;;;;;1.50;0.70;;;6.20;99.90;;;;;;4958586;28;20259;-95
2020/12/04 09:18:13;;;;;;;1.50;1.40;;;6.20;99.90;;;;;;4971034;28;20263;-96
2020/12/04 09:20:49;;;;;;;2.57;1.80;;;6.30;99.90;;;;;;4972875;28;21662;-95
2020/12/04 09:23:23;;;;;;;1.40;0.87;;;6.30;99.90;;;;;;4985805;28;20171;-95
2020/12/04 09:25:54;;;;;;;2.03;1.50;;;6.40;99.90;;;;;;4918273;28;20708;-95
2020/12/04 09:28:28;;;;;;;2.47;1.23;;;6.40;99.90;;;;;;4958718;28;20238;-95
2020/12/04 09:31:03;;;;;;;0.80;0.80;;;6.50;99.90;;;;;;4959341;28;20257;-95
2020/12/04 09:33:34;;;;;;;0.30;0.30;;;6.50;99.90;;;;;;4985708;28;20301;-96
2020/12/04 09:35:59;;;;;;;1.13;1.03;;;6.50;99.90;;;;;;4992275;28;20224;-95
2020/12/04 09:38:27;;;;;;;1.00;0.93;;;6.50;99.90;;;;;;4974790;28;20191;-95
2020/12/04 09:40:56;;;;;;;2.07;1.87;;;6.60;99.90;;;;;;4984078;28;20183;-96
2020/12/04 09:43:31;;;;;;;1.37;1.27;;;6.70;99.90;;;;;;4980148;28;20222;-95
2020/12/04 09:45:59;;;;;;;0.80;0.80;;;6.70;99.90;;;;;;4983192;28;20222;-96
2020/12/04 09:48:35;;;;;;;1.73;1.20;;;6.80;99.90;;;;;;4976398;28;20223;-96
2020/12/04 09:51:01;;;;;;;0.83;0.83;;;6.90;99.90;;;;;;4947092;28;20251;-94
2020/12/04 09:53:29;;;;;;;0.83;0.83;;;6.90;99.90;;;;;;4977637;28;20183;-96
2020/12/04 09:55:57;;;;;;;0.67;0.67;;;7.00;99.90;;;;;;5005244;28;20246;-95
2020/12/04 09:58:27;;;;;;;1.07;1.03;;;7.00;99.90;;;;;;4961282;28;20215;-96
2020/12/04 10:00:53;;;;;;;1.67;1.47;;;7.00;99.90;;;;;;4960591;28;20220;-96
2020/12/04 10:03:20;;;;;;;1.37;1.27;;;7.10;99.90;;;;;;4976282;28;20219;-96
2020/12/04 10:05:47;;;;;;;6.37;1.43;;;7.10;99.90;;;;;;4973429;28;20821;-96
2020/12/04 10:08:18;;;;;;;2.67;1.07;;;7.10;99.90;;;;;;5006484;28;20223;-96
2020/12/04 10:10:59;;;;;;;0.83;0.83;;;7.10;99.90;;;;;;4946828;28;20272;-95
2020/12/04 10:13:42;;;;;;;0.83;0.73;;;7.20;99.90;;;;;;4980793;28;20779;-95
2020/12/04 10:16:08;;;;;;;0.80;0.80;;;7.20;99.90;;;;;;4973087;28;20233;-95
2020/12/04 10:18:36;;;;;;;0.63;0.50;;;7.20;99.90;;;;;;4958069;28;20302;-95
2020/12/04 10:21:07;;;;;;;0.87;0.73;;;7.20;99.90;;;;;;4947886;28;20219;-96
2020/12/04 10:23:49;;;;;;;0.87;0.80;;;7.30;99.90;;;;;;4986416;28;21241;-96
2020/12/04 10:26:24;;;;;;;1.37;1.00;;;7.30;99.90;;;;;;4990064;28;20236;-96
2020/12/04 10:28:55;;;;;;;0.83;0.80;;;7.20;99.90;;;;;;4977474;28;20229;-96
2020/12/04 10:31:26;;;;;;;2.37;2.17;;;7.20;99.90;;;;;;4985871;28;20326;-96
2020/12/04 10:33:55;;;;;;;0.67;0.67;;;7.20;99.90;;;;;;4947303;28;20666;-96
2020/12/04 10:36:32;;;;;;;1.20;0.90;;;7.20;99.90;;;;;;5001740;28;20232;-96
2020/12/04 10:39:34;;;;;;;1.57;1.27;;;7.20;99.90;;;;;;4972097;28;20781;-95
2020/12/04 10:42:28;;;;;;;1.27;1.17;;;7.30;99.90;;;;;;4947743;28;21364;-96
2020/12/04 10:44:57;;;;;;;2.43;1.13;;;7.40;99.90;;;;;;4979486;28;20250;-96
2020/12/04 10:47:31;;;;;;;0.67;0.67;;;7.40;99.90;;;;;;4977411;28;20199;-96
2020/12/04 10:50:05;;;;;;;0.70;0.70;;;7.40;99.90;;;;;;4973206;28;20198;-96
2020/12/04 10:52:33;;;;;;;1.00;0.90;;;7.40;99.90;;;;;;4936686;28;20319;-96
2020/12/04 10:55:02;;;;;;;1.27;1.17;;;7.60;99.90;;;;;;4977733;28;20223;-96
2020/12/04 10:57:38;;;;;;;1.00;0.90;;;7.70;99.90;;;;;;4970238;28;20642;-96
2020/12/04 11:00:08;;;;;;;1.23;1.23;;;7.70;99.90;;;;;;4981810;28;20314;-95
2020/12/04 11:02:37;;;;;;;0.60;0.60;;;7.80;99.90;;;;;;4968068;28;20188;-94
2020/12/04 11:07:55;;;;;;;1.90;1.00;;;7.80;99.90;;;;;;5000974;28;20234;-95
2020/12/04 11:10:21;;;;;;;1.17;0.80;;;7.60;99.90;;;;;;4961106;28;20313;-94
2020/12/04 11:12:47;;;;;;;0.70;0.60;;;7.60;99.90;;;;;;4971989;28;21826;-96
2020/12/04 11:15:30;;;;;;;0.27;0.27;;;7.60;99.90;;;;;;4994464;28;20231;-96
2020/12/04 11:18:02;;;;;;;3.60;1.23;;;7.60;99.90;;;;;;4980961;28;20227;-93
2020/12/04 11:20:28;;;;;;;0.80;0.80;;;7.60;99.90;;;;;;4997445;28;20682;-95
2020/12/04 11:22:56;;;;;;;0.40;0.40;;;7.60;99.90;;;;;;4983650;28;20196;-91
2020/12/04 11:25:22;;;;;;;1.20;1.10;;;7.70;99.90;;;;;;4980856;28;20231;-93
2020/12/04 11:27:49;;;;;;;0.77;0.57;;;7.80;99.90;;;;;;5001825;28;20215;-93
2020/12/04 11:30:18;;;;;;;0.60;0.60;;;7.80;99.90;;;;;;4982651;28;20230;-92
2020/12/04 11:32:47;;;;;;;0.73;0.73;;;7.80;99.90;;;;;;5002211;28;20226;-95
2020/12/04 11:35:17;;;;;;;0.33;0.33;;;7.80;99.90;;;;;;4987071;28;20187;-93
2020/12/04 11:37:47;;;;;;;2.37;1.63;;;7.80;99.90;;;;;;5002384;28;20251;-93
2020/12/04 11:40:18;;;;;;;0.30;0.30;;;7.80;99.90;;;;;;4985473;28;20327;-94
2020/12/04 11:42:45;;;;;;;0.40;0.40;;;7.80;99.90;;;;;;4960465;28;20227;-94
2020/12/04 11:45:15;;;;;;;1.07;1.07;;;7.70;99.90;;;;;;4961494;28;20238;-94
2020/12/04 11:47:41;;;;;;;0.70;0.70;;;7.70;99.90;;;;;;4982905;28;20242;-93
2020/12/04 11:50:18;;;;;;;0.50;0.40;;;7.70;99.90;;;;;;4968464;28;20210;-92
2020/12/04 11:52:44;;;;;;;0.60;0.60;;;7.70;99.90;;;;;;4985082;28;20314;-95
2020/12/04 11:55:17;;;;;;;0.30;0.30;;;7.80;99.90;;;;;;5001526;28;20227;-94
2020/12/04 11:57:43;;;;;;;0.83;0.83;;;7.80;99.90;;;;;;4946279;28;20584;-93
2020/12/04 12:00:11;;;;;;;0.47;0.47;;;7.80;99.90;;;;;;4970645;28;20230;-94
2020/12/04 12:02:37;;;;;;;1.27;1.10;;;7.90;99.90;;;;;;5003283;28;20187;-94
2020/12/04 12:05:04;;;;;;;0.53;0.53;;;7.90;99.90;;;;;;4986898;28;20242;-93
2020/12/04 12:07:41;;;;;;;0.43;0.43;;;7.90;99.90;;;;;;4984831;28;20366;-94
2020/12/04 12:10:07;;;;;;;1.20;0.97;;;8.00;99.90;;;;;;4974417;28;20227;-93
2020/12/04 12:12:36;;;;;;;0.50;0.50;;;8.00;99.90;;;;;;4967179;28;20211;-93
2020/12/04 12:15:06;;;;;;;0.50;0.50;;;8.00;99.90;;;;;;5006061;28;20227;-95
2020/12/04 12:17:31;;;;;;;0.30;0.30;;;8.00;99.90;;;;;;4981174;28;20202;-92
2020/12/04 12:20:00;;;;;;;0.80;0.80;;;8.00;99.90;;;;;;4971922;28;20195;-92
2020/12/04 12:22:26;;;;;;;0.47;0.47;;;8.00;99.90;;;;;;4971958;28;20245;-96
2020/12/04 12:24:52;;;;;;;1.07;1.00;;;8.00;99.90;;;;;;5008897;28;20696;-93
2020/12/04 12:27:19;;;;;;;1.03;0.33;;;8.00;99.90;;;;;;4992299;28;20673;-95
2020/12/04 12:29:45;;;;;;;0.70;0.70;;;8.00;99.90;;;;;;4996650;28;20239;-94
2020/12/04 12:32:12;;;;;;;0.40;0.40;;;8.00;99.90;;;;;;4959481;28;20192;-92
2020/12/04 12:35:02;;;;;;;0.73;0.73;;;7.90;99.90;;;;;;4999438;28;20223;-93
2020/12/04 12:37:31;;;;;;;0.90;0.90;;;8.00;99.90;;;;;;4991743;28;20220;-93
2020/12/04 12:40:04;;;;;;;0.20;0.20;;;8.00;99.90;;;;;;5008542;28;20219;-93
2020/12/04 12:42:31;;;;;;;1.17;0.70;;;8.00;99.90;;;;;;5017579;28;20222;-91
2020/12/04 12:44:58;;;;;;;0.20;0.20;;;8.00;99.90;;;;;;4996052;28;20979;-94
2020/12/04 12:47:25;;;;;;;3.93;0.90;;;8.00;99.90;;;;;;4981269;28;20212;-94
2020/12/04 12:49:53;;;;;;;0.30;0.30;;;8.00;99.90;;;;;;5003502;28;20210;-93
2020/12/04 12:52:21;;;;;;;0.53;0.53;;;7.90;99.90;;;;;;5001045;28;20287;-93
2020/12/04 12:54:47;;;;;;;0.57;0.57;;;7.90;99.90;;;;;;4981585;28;20713;-92
2020/12/04 12:57:17;;;;;;;0.23;0.23;;;7.90;99.90;;;;;;4981002;28;20228;-93
2020/12/04 12:59:45;;;;;;;0.30;0.30;;;7.80;99.90;;;;;;4982228;28;20219;-93
2020/12/04 13:02:11;;;;;;;0.50;0.50;;;7.90;99.90;;;;;;4972562;28;20298;-96
2020/12/04 13:04:37;;;;;;;0.27;0.27;;;7.80;99.90;;;;;;4969848;28;20771;-94
2020/12/04 13:07:03;;;;;;;1.53;0.80;;;7.90;99.90;;;;;;4969784;28;20215;-95
2020/12/04 13:09:29;;;;;;;0.70;0.70;;;7.90;99.90;;;;;;4978915;28;20289;-95
2020/12/04 13:11:55;;;;;;;4.20;0.97;;;7.90;99.90;;;;;;4980048;28;20227;-94